Time;durP1;ratioP1;P1;durP2;ratioP2;P2;SDS_P1;SDS_P2;PMS_P1;PMS_P2;Temp;Humidity;BMP_temperature;BMP_pressure;BME280_temperature;BME280_humidity;BME280_pressure;Samples;Min_cycle;Max_cycle;Signal;HPM_P1;HPM_P2
2024/04/11 00:00:16;;;;;;;9.35;3.10;;;8.20;60.40;;;3.53;100.00;96833.56;5303073;26;20010;-55
2024/04/11 00:02:43;;;;;;;15.00;3.13;;;8.30;60.60;;;3.56;100.00;96827.91;5324594;26;20012;-49
2024/04/11 00:05:09;;;;;;;4.53;2.55;;;8.30;60.60;;;3.57;100.00;96828.72;5308463;26;20021;-52
2024/04/11 00:07:35;;;;;;;8.05;2.60;;;8.30;60.60;;;3.60;100.00;96825.69;5315633;26;20009;-51
2024/04/11 00:10:01;;;;;;;13.77;2.95;;;8.30;60.70;;;3.66;100.00;96827.56;5297269;26;20024;-49
2024/04/11 00:12:27;;;;;;;6.35;3.17;;;8.30;60.70;;;3.69;100.00;96829.81;5311620;26;20023;-48
2024/04/11 00:14:52;;;;;;;6.57;2.70;;;8.30;60.80;;;3.67;100.00;96832.66;5330555;26;19997;-49
2024/04/11 00:17:19;;;;;;;7.75;2.88;;;8.30;60.80;;;3.65;100.00;96833.84;5291705;26;20037;-51
2024/04/11 00:19:45;;;;;;;5.53;2.75;;;8.30;60.80;;;3.65;100.00;96824.13;5323638;26;20009;-48
2024/04/11 00:22:11;;;;;;;8.27;2.83;;;8.30;60.80;;;3.70;100.00;96827.03;5311963;26;20541;-53
2024/04/11 00:24:37;;;;;;;5.05;2.88;;;8.30;60.90;;;3.71;100.00;96822.56;5305102;26;20078;-49
2024/04/11 00:27:04;;;;;;;7.53;3.17;;;8.30;60.80;;;3.69;100.00;96817.47;5320356;26;20019;-52
2024/04/11 00:29:31;;;;;;;9.98;3.15;;;8.30;60.90;;;3.74;100.00;96819.53;5317560;26;20014;-48
2024/04/11 00:31:57;;;;;;;6.68;2.47;;;8.40;61.10;;;3.76;100.00;96811.44;5318120;26;20370;-48
2024/04/11 00:34:24;;;;;;;9.63;3.67;;;8.40;61.10;;;3.87;100.00;96818.81;5310368;26;20000;-48
2024/04/11 00:36:53;;;;;;;5.75;2.78;;;8.40;61.20;;;3.92;100.00;96813.81;5309584;26;20011;-48
2024/04/11 00:39:22;;;;;;;6.93;3.65;;;8.40;61.20;;;3.91;100.00;96810.31;5316301;26;20002;-54
2024/04/11 00:41:51;;;;;;;13.88;3.83;;;8.50;61.20;;;3.92;100.00;96808.53;5315818;26;20013;-50
2024/04/11 00:44:18;;;;;;;7.13;3.00;;;8.50;61.20;;;3.90;100.00;96799.97;5315309;26;20002;-53
2024/04/11 00:46:53;;;;;;;5.85;2.83;;;8.50;61.10;;;3.90;100.00;96807.91;5314952;26;20005;-50
2024/04/11 00:49:23;;;;;;;5.38;2.70;;;8.50;61.20;;;3.92;100.00;96803.25;5314599;26;20527;-52
2024/04/11 00:51:50;;;;;;;5.28;2.60;;;8.50;61.00;;;3.88;100.00;96804.63;5315826;26;20009;-49
2024/04/11 00:54:19;;;;;;;3.35;2.40;;;8.50;60.90;;;3.88;100.00;96805.44;5313379;26;20000;-49
2024/04/11 00:56:45;;;;;;;7.28;2.80;;;8.50;60.90;;;3.87;100.00;96801.19;5308161;26;20002;-50
2024/04/11 00:59:16;;;;;;;7.95;2.80;;;8.50;60.90;;;3.94;100.00;96803.84;5328305;26;20006;-50
2024/04/11 01:01:46;;;;;;;8.02;2.72;;;8.50;60.90;;;4.01;100.00;96803.91;5312834;26;20002;-51
2024/04/11 01:04:12;;;;;;;4.72;2.67;;;8.50;61.10;;;4.07;100.00;96790.75;5326373;26;20475;-49
2024/04/11 01:09:45;;;;;;;6.03;2.72;;;8.60;61.30;;;3.98;100.00;96786.66;5315356;26;20100;-50
2024/04/11 01:12:16;;;;;;;5.97;2.78;;;8.60;61.20;;;3.93;100.00;96781.97;5320533;26;20468;-51
2024/04/11 01:19:05;;;;;;;6.35;2.38;;;8.60;61.20;;;3.92;100.00;96780.34;5282369;26;20502;-54
2024/04/11 01:21:31;;;;;;;5.15;2.55;;;8.60;61.20;;;3.94;100.00;96767.75;5286793;26;20016;-52
2024/04/11 01:23:57;;;;;;;9.20;2.60;;;8.50;61.20;;;4.00;100.00;96754.81;5286289;26;20042;-51
2024/04/11 01:26:24;;;;;;;9.48;2.97;;;8.60;61.30;;;4.00;100.00;96754.81;5288491;26;20348;-53
2024/04/11 01:28:51;;;;;;;4.93;2.33;;;8.60;61.20;;;4.00;100.00;96749.53;5283675;26;20040;-54
2024/04/11 01:31:18;;;;;;;6.00;2.45;;;8.60;61.20;;;4.03;100.00;96749.16;5285149;26;20037;-49
2024/04/11 01:33:46;;;;;;;5.53;2.30;;;8.60;61.00;;;4.00;100.00;96739.00;5296926;26;20021;-50
2024/04/11 01:36:16;;;;;;;4.25;2.47;;;8.60;61.00;;;3.97;100.00;96742.84;5293128;26;20013;-50
2024/04/11 01:38:45;;;;;;;8.77;2.50;;;8.60;61.00;;;3.98;100.00;96741.00;5285740;26;20469;-50
2024/04/11 01:41:11;;;;;;;8.50;2.58;;;8.60;61.00;;;3.98;100.00;96733.94;5281064;26;20473;-53
2024/04/11 01:43:37;;;;;;;8.68;2.22;;;8.60;61.00;;;4.00;100.00;96737.16;5301464;26;20009;-50
2024/04/11 01:46:03;;;;;;;6.20;2.28;;;8.60;61.00;;;4.02;100.00;96739.63;5291195;26;20009;-49
2024/04/11 01:48:29;;;;;;;4.07;2.00;;;8.60;61.00;;;4.03;100.00;96734.16;5288059;26;20018;-50
2024/04/11 01:50:56;;;;;;;5.18;2.25;;;8.60;61.00;;;4.05;100.00;96736.59;5288323;26;20243;-50
2024/04/11 01:53:23;;;;;;;6.07;2.10;;;8.60;61.00;;;4.09;100.00;96743.09;5285739;26;20009;-50
2024/04/11 01:55:50;;;;;;;6.93;2.40;;;8.70;61.00;;;4.06;100.00;96736.41;5294998;26;20001;-48
2024/04/11 01:58:22;;;;;;;7.32;3.17;;;8.60;60.90;;;4.00;100.00;96741.63;5283054;26;20018;-51
2024/04/11 02:00:48;;;;;;;;;;;8.60;60.70;;;3.90;100.00;96742.81;5293925;26;20002;-50
2024/04/11 02:03:14;;;;;;;5.78;2.40;;;8.60;60.40;;;3.77;100.00;96740.09;5303614;26;19989;-51
2024/04/11 02:05:43;;;;;;;4.93;2.42;;;8.50;60.20;;;3.65;100.00;96736.34;5271847;26;20353;-55
2024/04/11 02:08:08;;;;;;;5.13;2.50;;;8.50;60.20;;;3.54;100.00;96740.34;5273443;26;20009;-48
2024/04/11 02:10:38;;;;;;;7.47;2.35;;;8.40;60.10;;;3.44;100.00;96753.00;5270914;26;20016;-53
2024/04/11 02:13:04;;;;;;;8.68;2.88;;;8.30;60.10;;;3.33;100.00;96754.38;5288398;26;20016;-49
2024/04/11 02:15:30;;;;;;;5.13;2.53;;;8.30;60.10;;;3.23;100.00;96759.16;5278406;26;20006;-53
2024/04/11 02:17:57;;;;;;;5.32;2.40;;;8.20;60.20;;;3.11;100.00;96758.84;5279343;26;20017;-51
2024/04/11 02:20:24;;;;;;;6.85;2.50;;;8.10;60.20;;;3.02;100.00;96759.97;5277727;26;20517;-53
2024/04/11 02:22:53;;;;;;;6.80;3.05;;;8.00;60.90;;;2.94;100.00;96763.50;5274443;26;20005;-52
2024/04/11 02:25:20;;;;;;;6.53;3.22;;;7.90;61.00;;;2.87;100.00;96757.38;5280528;26;20482;-54
2024/04/11 02:27:46;;;;;;;5.80;2.72;;;7.80;60.30;;;2.77;100.00;96755.06;5272412;26;20057;-51
2024/04/11 02:30:12;;;;;;;8.50;2.60;;;7.80;60.40;;;2.70;100.00;96758.63;5280223;26;20637;-50
2024/04/11 02:32:41;;;;;;;10.90;3.00;;;7.70;61.20;;;2.68;100.00;96766.69;5283355;26;20096;-51
2024/04/11 02:35:11;;;;;;;6.32;2.63;;;7.60;60.50;;;2.63;100.00;96762.97;5273704;26;20001;-50
2024/04/11 02:37:40;;;;;;;8.70;3.00;;;7.60;60.70;;;2.59;100.00;96767.81;5270581;26;20014;-48
2024/04/11 02:40:07;;;;;;;5.95;2.90;;;7.50;60.60;;;2.50;100.00;96767.09;5269454;26;20020;-54
2024/04/11 02:42:39;;;;;;;8.25;2.90;;;7.40;60.70;;;2.40;100.00;96763.13;5275368;26;20009;-53
2024/04/11 02:45:14;;;;;;;8.80;3.58;;;7.40;60.80;;;2.33;100.00;96759.63;5269159;26;20077;-49
2024/04/11 02:47:41;;;;;;;6.43;2.70;;;7.30;60.70;;;2.28;100.00;96766.22;5279645;26;20446;-50
2024/04/11 02:50:09;;;;;;;6.75;3.10;;;7.30;60.80;;;2.17;100.00;96765.91;5268673;26;20002;-48
2024/04/11 02:52:36;;;;;;;9.75;3.10;;;7.20;60.90;;;2.13;100.00;96764.59;5274587;26;20012;-50
2024/04/11 02:55:04;;;;;;;5.00;3.03;;;7.10;60.90;;;2.02;100.00;96768.53;5276594;26;20168;-53
2024/04/11 02:57:31;;;;;;;6.47;2.97;;;7.10;61.00;;;1.94;100.00;96779.91;5273536;26;20497;-50
2024/04/11 02:59:57;;;;;;;6.65;3.03;;;7.00;61.00;;;1.93;100.00;96772.22;5271568;26;20001;-50
2024/04/11 03:02:28;;;;;;;16.63;4.15;;;6.90;61.10;;;1.94;100.00;96774.66;5277843;26;20496;-54
2024/04/11 03:04:56;;;;;;;13.45;3.47;;;6.90;61.20;;;1.89;100.00;96768.34;5276160;26;20006;-49
2024/04/11 03:07:22;;;;;;;7.78;3.28;;;6.80;61.30;;;1.83;100.00;96772.50;5274113;26;20020;-50
2024/04/11 03:09:53;;;;;;;5.68;3.42;;;6.80;61.50;;;1.78;100.00;96766.97;5267031;26;20079;-51
2024/04/11 03:12:20;;;;;;;8.57;3.45;;;6.80;61.60;;;1.76;100.00;96767.16;5285082;26;20018;-51
2024/04/11 03:14:47;;;;;;;10.18;3.50;;;6.70;61.60;;;1.75;100.00;96767.31;5279348;26;20006;-49
2024/04/11 03:17:13;;;;;;;9.75;3.75;;;6.70;61.70;;;1.72;100.00;96759.78;5268533;26;20709;-55
2024/04/11 03:19:40;;;;;;;8.38;4.05;;;6.60;61.70;;;1.69;100.00;96762.78;5271530;26;20018;-49
2024/04/11 03:22:07;;;;;;;13.07;4.13;;;6.60;61.90;;;1.66;100.00;96765.78;5273250;26;20005;-49
2024/04/11 03:24:33;;;;;;;11.30;4.30;;;6.60;62.00;;;1.63;100.00;96761.72;5268057;26;20607;-50
2024/04/11 03:27:02;;;;;;;7.70;4.22;;;6.60;62.10;;;1.59;100.00;96766.47;5276131;26;20460;-49
2024/04/11 03:29:29;;;;;;;10.90;4.30;;;6.50;62.10;;;1.55;100.00;96764.41;5267901;26;20013;-48
2024/04/11 03:31:55;;;;;;;8.30;4.30;;;6.50;62.20;;;1.56;100.00;96777.34;5277176;26;20016;-53
2024/04/11 03:34:23;;;;;;;7.38;4.10;;;6.50;62.30;;;1.59;100.00;96778.81;5267840;26;20469;-51
2024/04/11 03:36:49;;;;;;;10.98;4.15;;;6.50;63.20;;;1.57;100.00;96776.38;5273351;26;20020;-48
2024/04/11 03:39:16;;;;;;;11.32;4.20;;;6.40;62.40;;;1.53;100.00;96780.31;5271769;26;20010;-54
2024/04/11 03:41:49;;;;;;;7.60;4.13;;;6.50;62.50;;;1.48;100.00;96781.88;5273896;26;20002;-54
2024/04/11 03:44:17;;;;;;;10.52;4.80;;;6.40;62.40;;;1.43;100.00;96781.59;5279455;26;20350;-49
2024/04/11 03:46:43;;;;;;;8.73;4.60;;;6.40;62.40;;;1.35;100.00;96779.88;5272150;26;20472;-48
2024/04/11 03:49:08;;;;;;;10.25;4.40;;;6.30;62.40;;;1.32;100.00;96788.09;5278572;26;20001;-48
2024/04/11 03:51:39;;;;;;;9.25;4.75;;;6.30;62.40;;;1.31;100.00;96783.81;5266161;26;20018;-51
2024/04/11 03:54:09;;;;;;;10.68;4.95;;;6.30;62.60;;;1.33;100.00;96793.16;5270332;26;20377;-48
2024/04/11 03:56:35;;;;;;;9.20;4.53;;;6.30;62.70;;;1.32;100.00;96799.41;5271739;26;20018;-50
2024/04/11 03:59:06;;;;;;;12.48;4.65;;;6.30;62.70;;;1.30;100.00;96790.06;5280511;26;20012;-55
2024/04/11 04:01:33;;;;;;;10.00;4.68;;;6.20;62.70;;;1.30;100.00;96796.13;5282006;26;20006;-53
2024/04/11 04:04:04;;;;;;;11.55;4.80;;;6.20;62.70;;;1.30;100.00;96790.06;5267844;26;20021;-48
2024/04/11 04:06:33;;;;;;;10.73;5.20;;;6.20;62.90;;;1.31;100.00;96802.19;5270199;26;20006;-50
2024/04/11 04:09:07;;;;;;;7.88;4.95;;;6.20;62.90;;;1.30;100.00;96796.13;5266400;26;20350;-48
2024/04/11 04:11:36;;;;;;;12.63;5.13;;;6.20;62.90;;;1.27;100.00;96801.72;5272764;26;20002;-48
2024/04/11 04:14:14;;;;;;;12.23;5.90;;;6.10;62.90;;;1.28;100.00;96807.78;5274730;26;20009;-50
2024/04/11 04:16:41;;;;;;;14.50;5.63;;;6.10;63.00;;;1.29;100.00;96805.00;5270739;26;20477;-50
2024/04/11 04:19:07;;;;;;;17.95;6.40;;;6.20;63.10;;;1.30;100.00;96804.00;5273860;26;20005;-48
2024/04/11 04:21:35;;;;;;;17.70;6.57;;;6.10;63.10;;;1.29;100.00;96812.06;5271209;26;20041;-51
2024/04/11 04:24:05;;;;;;;14.07;5.57;;;6.20;63.40;;;1.26;100.00;96821.09;5275403;26;20015;-51
2024/04/11 04:26:31;;;;;;;15.70;6.22;;;6.10;63.30;;;1.26;100.00;96817.66;5274935;26;20033;-52
2024/04/11 04:28:58;;;;;;;11.63;5.32;;;6.20;63.40;;;1.20;100.00;96821.81;5268897;26;20005;-49
2024/04/11 04:31:30;;;;;;;13.05;5.15;;;6.20;63.40;;;1.21;100.00;96820.81;5275655;26;20009;-50
2024/04/11 04:34:00;;;;;;;12.85;5.60;;;6.10;63.30;;;1.24;100.00;96827.53;5263741;26;20383;-54
2024/04/11 04:36:33;;;;;;;13.68;6.18;;;6.10;63.40;;;1.21;100.00;96830.50;5263301;26;20001;-52
2024/04/11 04:38:59;;;;;;;11.52;5.80;;;6.10;63.40;;;1.23;100.00;96837.22;5268274;26;20005;-53
2024/04/11 04:41:29;;;;;;;15.30;6.30;;;6.10;63.40;;;1.24;100.00;96833.59;5273667;26;20084;-52
2024/04/11 04:44:00;;;;;;;13.52;6.35;;;6.10;63.60;;;1.20;100.00;96832.31;5273868;26;20001;-51
2024/04/11 04:46:32;;;;;;;11.52;6.47;;;6.10;63.60;;;1.21;100.00;96833.13;5272130;26;20009;-49
2024/04/11 04:49:02;;;;;;;10.40;6.35;;;6.10;63.70;;;1.23;100.00;96831.97;5268727;26;20014;-51
2024/04/11 04:51:33;;;;;;;15.10;6.43;;;6.10;63.60;;;1.22;100.00;96835.56;5274001;26;20006;-50
2024/04/11 04:54:01;;;;;;;11.98;6.03;;;6.10;63.70;;;1.15;100.00;96832.81;5284624;26;20001;-49
2024/04/11 04:56:32;;;;;;;13.07;6.13;;;6.10;63.70;;;1.23;100.00;96844.28;5283792;26;20015;-48
2024/04/11 04:58:59;;;;;;;11.02;6.00;;;6.10;63.70;;;1.23;100.00;96852.16;5279241;26;20020;-53
2024/04/11 05:01:26;;;;;;;13.65;5.95;;;6.20;63.80;;;1.25;100.00;96844.91;5275031;26;20005;-49
2024/04/11 05:03:55;;;;;;;15.85;6.60;;;6.20;63.80;;;1.26;100.00;96855.22;5268698;26;20013;-51
2024/04/11 05:06:21;;;;;;;18.33;6.50;;;6.20;64.00;;;1.26;100.00;96865.75;5283811;26;20069;-53
2024/04/11 05:08:48;;;;;;;15.05;6.78;;;6.20;63.80;;;1.32;100.00;96879.97;5280011;26;20385;-52
2024/04/11 05:11:16;;;;;;;18.83;6.97;;;6.20;63.80;;;1.37;100.00;96867.13;5278558;26;20087;-51
2024/04/11 05:13:45;;;;;;;12.70;6.75;;;6.30;64.00;;;1.40;100.00;96864.16;5281132;26;20005;-50
2024/04/11 05:16:18;;;;;;;19.92;6.68;;;6.30;64.00;;;1.41;100.00;96868.44;5281804;26;20017;-53
2024/04/11 05:18:46;;;;;;;12.55;6.35;;;6.40;64.00;;;1.45;100.00;96867.06;5280439;26;20006;-54
2024/04/11 05:21:18;;;;;;;15.68;6.57;;;6.40;64.00;;;1.53;100.00;96868.81;5274849;26;20014;-51
2024/04/11 05:23:44;;;;;;;10.60;6.53;;;6.50;64.20;;;1.58;100.00;96871.75;5273608;26;20010;-50
2024/04/11 05:26:14;;;;;;;13.48;6.40;;;6.50;64.10;;;1.65;100.00;96872.66;5271621;26;20031;-51
2024/04/11 05:28:44;;;;;;;19.55;6.95;;;6.60;64.20;;;1.78;100.00;96879.94;5277185;26;20012;-54
2024/04/11 05:31:16;;;;;;;15.15;6.63;;;6.70;64.30;;;1.87;100.00;96878.88;5268925;26;20469;-52
2024/04/11 05:33:53;;;;;;;14.30;6.65;;;6.80;64.40;;;1.95;100.00;96875.38;5272234;26;20029;-51
2024/04/11 05:36:24;;;;;;;13.20;6.00;;;6.90;64.40;;;2.06;100.00;96877.53;5272135;26;20001;-53
2024/04/11 05:38:53;;;;;;;14.55;6.32;;;7.10;64.40;;;2.09;100.00;96880.63;5271772;26;20006;-51
2024/04/11 05:41:20;;;;;;;19.02;6.78;;;7.20;64.40;;;2.23;100.00;96878.22;5276802;26;19997;-50
2024/04/11 05:43:49;;;;;;;13.73;6.15;;;7.40;64.50;;;2.42;100.00;96887.38;5276508;26;20467;-48
2024/04/11 05:46:18;;;;;;;10.57;5.88;;;7.50;64.50;;;2.55;100.00;96895.44;5274689;26;20012;-53
2024/04/11 05:48:47;;;;;;;11.50;5.93;;;7.70;64.60;;;2.73;100.00;96882.75;5280191;26;20004;-51
2024/04/11 05:51:14;;;;;;;11.15;6.38;;;7.90;64.50;;;2.92;100.00;96886.63;5279935;26;20435;-53
2024/04/11 05:53:41;;;;;;;12.90;6.20;;;8.10;64.60;;;3.07;100.00;96891.00;5255929;26;20010;-50
2024/04/11 05:56:10;;;;;;;11.73;5.70;;;8.40;64.70;;;3.35;100.00;96891.13;5274123;26;20009;-52
2024/04/11 05:58:38;;;;;;;12.93;6.15;;;8.60;64.70;;;3.62;100.00;96889.56;5275446;26;20025;-53
2024/04/11 06:01:09;;;;;;;12.70;5.75;;;8.90;64.70;;;3.91;100.00;96893.88;5270611;26;20019;-54
2024/04/11 06:03:41;;;;;;;10.63;5.32;;;9.20;64.70;;;4.18;100.00;96892.28;5269777;26;20001;-49
2024/04/11 06:06:13;;;;;;;9.98;4.55;;;9.50;64.80;;;4.38;100.00;96898.47;5273733;26;20021;-53
2024/04/11 06:08:50;;;;;;;11.35;3.88;;;9.80;64.70;;;4.57;100.00;96904.06;5277308;26;20010;-52
2024/04/11 06:11:17;;;;;;;11.20;3.72;;;10.20;64.40;;;4.72;100.00;96912.69;5278512;26;20002;-53
2024/04/11 06:13:46;;;;;;;9.40;3.97;;;10.40;63.80;;;4.96;100.00;96910.59;5276783;26;20010;-54
2024/04/11 06:16:14;;;;;;;7.22;3.50;;;10.80;63.40;;;5.23;100.00;96922.06;5280332;26;20006;-54
2024/04/11 06:18:40;;;;;;;7.20;4.00;;;11.00;62.80;;;5.41;100.00;96919.69;5268484;26;20013;-50
2024/04/11 06:21:06;;;;;;;3.58;2.70;;;11.30;62.30;;;5.72;100.00;96929.72;5279738;26;20001;-49
2024/04/11 06:23:32;;;;;;;9.85;3.30;;;11.60;61.90;;;6.07;100.00;96931.41;5276053;26;20370;-50
2024/04/11 06:25:58;;;;;;;8.57;3.30;;;11.90;61.50;;;6.36;100.00;96935.47;5273594;26;20044;-52
2024/04/11 06:28:24;;;;;;;7.28;3.33;;;12.30;61.10;;;6.64;100.00;96941.38;5284408;26;20468;-52
2024/04/11 06:30:52;;;;;;;7.68;3.42;;;12.60;60.60;;;7.00;100.00;96944.56;5277150;26;20547;-55
2024/04/11 06:33:18;;;;;;;5.40;3.08;;;12.90;60.10;;;7.27;99.83;96939.94;5276345;26;20013;-53
2024/04/11 06:35:46;;;;;;;6.28;3.00;;;13.20;59.70;;;7.48;96.72;96949.47;5275146;26;20616;-54
2024/04/11 06:38:16;;;;;;;5.15;3.00;;;13.60;59.20;;;7.77;94.88;96940.09;5275653;26;20041;-51
2024/04/11 06:40:47;;;;;;;4.85;2.67;;;13.90;58.70;;;8.15;92.16;96940.06;5278143;26;20015;-52
2024/04/11 06:43:16;;;;;;;4.45;2.20;;;14.20;58.30;;;8.53;89.47;96940.00;5274448;26;20498;-54
2024/04/11 06:45:44;;;;;;;6.20;2.30;;;14.60;57.80;;;8.90;85.78;96945.38;5275150;26;20013;-54
2024/04/11 06:48:10;;;;;;;7.32;2.70;;;15.00;57.30;;;9.25;82.72;96955.41;5273140;26;20053;-52
2024/04/11 06:50:37;;;;;;;8.55;2.80;;;15.40;56.70;;;9.59;81.04;96958.44;5290929;26;20006;-53
2024/04/11 06:53:08;;;;;;;6.25;2.90;;;15.70;56.10;;;9.82;76.98;96966.56;5270337;26;20008;-55
2024/04/11 06:55:37;;;;;;;5.38;2.40;;;16.10;55.40;;;10.02;74.94;96966.25;5282496;26;20177;-52
2024/04/11 06:58:03;;;;;;;3.50;2.33;;;16.40;54.70;;;10.12;72.37;96963.03;5268022;26;20025;-53
2024/04/11 07:00:38;;;;;;;5.22;2.30;;;16.60;54.00;;;10.40;72.77;96967.75;5272468;26;20009;-54
2024/04/11 07:03:16;;;;;;;4.07;2.30;;;16.90;53.30;;;10.76;70.44;96964.09;5287587;26;20024;-56
2024/04/11 07:06:16;;;;;;;5.40;2.47;;;17.20;52.60;;;10.67;69.62;96968.16;5274288;26;20649;-54
2024/04/11 07:08:43;;;;;;;4.28;1.90;;;17.40;51.70;;;10.54;68.20;96957.72;5277517;26;20033;-55
2024/04/11 07:11:32;;;;;;;3.70;2.30;;;17.50;51.30;;;10.75;68.16;96964.31;5269078;26;20001;-55
2024/04/11 07:14:01;;;;;;;6.38;2.40;;;17.60;50.70;;;11.17;67.64;96967.66;5283207;26;20865;-54
2024/04/11 07:16:32;;;;;;;4.47;2.20;;;17.70;50.20;;;11.32;66.65;96965.31;5279205;26;20013;-53
2024/04/11 07:18:59;;;;;;;6.53;2.38;;;17.80;49.90;;;11.44;65.78;96967.13;5270550;26;20365;-51
2024/04/11 07:21:34;;;;;;;6.68;2.63;;;18.00;49.40;;;11.33;64.60;96961.59;5284979;26;20045;-52
2024/04/11 07:24:03;;;;;;;3.53;2.10;;;18.20;48.90;;;11.40;65.77;96963.31;5284965;26;20001;-51
2024/04/11 07:26:32;;;;;;;4.80;2.38;;;18.20;48.40;;;11.58;65.58;96966.63;5277346;26;20008;-52
2024/04/11 07:29:01;;;;;;;4.82;2.30;;;18.40;48.20;;;11.78;64.19;96960.06;5272641;26;20105;-52
2024/04/11 07:31:35;;;;;;;4.78;2.40;;;18.40;47.70;;;11.88;64.81;96962.16;5278606;26;20106;-56
2024/04/11 07:34:04;;;;;;;6.93;2.40;;;18.50;47.30;;;11.90;64.07;96966.19;5278401;26;20005;-54
2024/04/11 07:36:32;;;;;;;3.78;2.53;;;18.60;47.00;;;11.97;65.16;96964.22;5299452;26;20106;-50
2024/04/11 07:38:59;;;;;;;6.55;2.50;;;18.70;46.90;;;12.14;63.29;96974.09;5300930;26;20050;-51
2024/04/11 07:41:32;;;;;;;6.25;2.78;;;18.90;46.70;;;12.36;62.15;96969.69;5287462;26;20376;-51
2024/04/11 07:44:05;;;;;;;5.32;2.78;;;19.00;46.30;;;11.89;63.69;96979.78;5299333;26;20009;-52
2024/04/11 07:46:33;;;;;;;;;;;19.10;46.00;;;12.41;62.99;96988.47;5283754;26;20018;-51
2024/04/11 07:49:07;;;;;;;4.43;2.58;;;19.20;46.50;;;12.81;61.10;96990.16;5295546;26;19934;-50
2024/04/11 07:51:34;;;;;;;6.05;3.30;;;19.40;46.10;;;13.34;60.00;96999.50;5278553;26;20009;-50
2024/04/11 07:54:03;;;;;;;4.53;2.47;;;19.70;45.80;;;13.51;58.51;96998.69;5287223;26;20072;-50
2024/04/11 07:56:29;;;;;;;6.53;2.60;;;19.90;45.50;;;13.60;58.38;96997.16;5286040;26;20015;-50
2024/04/11 07:58:56;;;;;;;4.28;2.72;;;20.20;45.00;;;13.94;57.41;97002.38;5281610;26;20002;-52
2024/04/11 08:01:34;;;;;;;5.30;2.75;;;20.50;44.70;;;14.07;56.81;97005.50;5295300;26;20352;-54
2024/04/11 08:04:11;;;;;;;4.55;2.50;;;20.80;44.00;;;14.34;56.02;97005.47;5276368;26;20006;-53
2024/04/11 08:06:37;;;;;;;7.30;2.60;;;21.00;43.20;;;14.58;55.69;97011.38;5289003;26;20019;-51
2024/04/11 08:09:06;;;;;;;4.72;2.42;;;21.20;43.30;;;14.71;55.02;97006.63;5279597;26;20547;-52
2024/04/11 08:11:34;;;;;;;4.95;2.63;;;21.50;42.90;;;14.84;53.37;97002.72;5276230;26;20017;-50
2024/04/11 08:14:04;;;;;;;4.28;2.42;;;21.70;42.30;;;14.92;53.69;96995.00;5280237;26;20033;-53
2024/04/11 08:16:33;;;;;;;3.97;2.30;;;21.80;41.70;;;14.95;52.88;97009.78;5292954;26;20037;-52
2024/04/11 08:19:02;;;;;;;4.45;2.25;;;21.90;41.00;;;15.18;51.57;97004.03;5288999;26;20014;-52
2024/04/11 08:21:32;;;;;;;3.70;2.33;;;22.00;40.60;;;15.29;51.37;97002.19;5289495;26;20404;-52
2024/04/11 08:24:00;;;;;;;4.28;2.33;;;22.10;40.10;;;15.27;50.65;97005.16;5283964;26;20013;-53
2024/04/11 08:26:27;;;;;;;5.00;2.40;;;22.20;39.70;;;14.69;50.93;97019.47;5295742;26;20081;-53
2024/04/11 08:28:55;;;;;;;3.65;2.42;;;22.30;39.30;;;14.70;51.55;97026.50;5286296;26;20001;-55
2024/04/11 08:31:28;;;;;;;3.55;2.38;;;22.30;39.00;;;14.74;51.31;97031.06;5294142;26;20030;-56
2024/04/11 08:33:57;;;;;;;4.72;2.22;;;22.30;38.60;;;15.00;52.38;97020.53;5286307;26;20012;-53
2024/04/11 08:36:23;;;;;;;7.07;2.30;;;22.40;38.50;;;15.20;52.66;97025.25;5287825;26;20492;-55
2024/04/11 08:38:48;;;;;;;5.05;2.90;;;22.40;38.30;;;15.52;50.97;97027.03;5293556;26;20005;-52
2024/04/11 08:41:15;;;;;;;3.97;2.45;;;22.50;38.20;;;15.73;50.37;97026.91;5286700;26;20008;-55
2024/04/11 08:43:45;;;;;;;5.63;2.58;;;22.60;38.70;;;15.71;49.92;97029.03;5288887;26;20001;-55
2024/04/11 08:46:11;;;;;;;4.88;2.80;;;22.70;37.70;;;15.59;50.11;97031.09;5281798;26;20018;-55
2024/04/11 08:48:40;;;;;;;5.13;2.60;;;22.80;37.20;;;15.41;49.36;97031.53;5296539;26;20554;-51
2024/04/11 08:51:28;;;;;;;4.05;2.47;;;22.80;36.90;;;15.50;49.24;97022.72;5285664;26;20019;-56
2024/04/11 08:53:55;;;;;;;3.90;2.47;;;22.80;36.70;;;15.67;50.12;97030.63;5281729;26;20017;-52
2024/04/11 08:56:22;;;;;;;3.97;2.78;;;22.80;36.80;;;15.86;50.48;97025.63;5292704;26;20031;-51
2024/04/11 08:58:49;;;;;;;4.25;2.28;;;22.90;36.70;;;15.97;48.81;97026.44;5281836;26;20025;-52
2024/04/11 09:01:20;;;;;;;7.05;2.70;;;23.00;36.40;;;15.99;47.48;97034.25;5292115;26;20006;-53
2024/04/11 09:03:48;;;;;;;4.32;2.88;;;23.10;36.10;;;15.82;49.54;97031.75;5287745;26;20016;-51
2024/04/11 09:06:26;;;;;;;4.88;2.50;;;23.10;36.10;;;15.90;47.89;97040.13;5290369;26;20012;-53
2024/04/11 09:08:54;;;;;;;5.20;2.55;;;23.20;35.80;;;15.71;48.40;97038.97;5288663;26;19997;-51
2024/04/11 09:11:23;;;;;;;5.88;2.80;;;23.30;35.60;;;15.51;47.91;97036.94;5290511;26;20020;-52
2024/04/11 09:13:50;;;;;;;5.72;2.50;;;23.30;35.20;;;15.59;47.45;97041.84;5292289;26;20010;-50
2024/04/11 09:16:27;;;;;;;3.60;2.38;;;23.20;34.80;;;15.71;49.60;97042.47;5291664;26;20009;-52
2024/04/11 09:19:05;;;;;;;6.32;2.80;;;23.30;34.80;;;15.62;48.87;97040.50;5288215;26;20016;-51
2024/04/11 09:21:32;;;;;;;6.50;3.28;;;23.30;34.80;;;15.76;47.20;97028.22;5287969;26;20358;-51
2024/04/11 09:23:58;;;;;;;3.58;2.30;;;23.30;34.60;;;15.85;46.51;97039.28;5283752;26;20486;-53
2024/04/11 09:26:27;;;;;;;4.13;2.20;;;23.40;34.40;;;15.72;47.26;97036.00;5293552;26;20005;-54
2024/04/11 09:28:54;;;;;;;3.50;2.60;;;23.40;34.00;;;15.76;48.51;97030.91;5284368;26;20082;-55
2024/04/11 09:31:21;;;;;;;6.28;3.15;;;23.40;34.20;;;16.05;46.83;97028.63;5296563;26;19998;-56
2024/04/11 09:33:53;;;;;;;4.70;2.50;;;23.50;34.10;;;16.04;45.71;97032.38;5286077;26;20074;-52
2024/04/11 09:36:20;;;;;;;;;;;23.60;33.60;;;16.04;47.57;97027.00;5291924;26;20349;-54
2024/04/11 09:38:53;;;;;;;5.93;3.50;;;23.60;34.10;;;16.25;45.81;97029.75;5283719;26;20359;-56
2024/04/11 09:41:24;;;;;;;6.93;4.28;;;23.80;33.90;;;16.56;46.08;97023.34;5286612;26;20423;-52
2024/04/11 09:43:55;;;;;;;5.13;2.75;;;23.90;33.60;;;16.26;45.86;97026.78;5283834;26;20350;-54
2024/04/11 09:46:24;;;;;;;4.68;2.70;;;24.00;33.20;;;16.50;45.82;97020.94;5278943;26;20476;-51
2024/04/11 09:48:53;;;;;;;5.35;2.97;;;24.10;33.10;;;16.75;45.42;97036.28;5287384;26;20010;-51
2024/04/11 09:51:20;;;;;;;5.03;3.22;;;24.20;33.00;;;16.90;46.92;97039.00;5279390;26;20010;-53
2024/04/11 09:53:47;;;;;;;4.70;2.88;;;24.30;33.00;;;17.00;43.75;97039.00;5291700;26;20082;-54
2024/04/11 09:56:17;;;;;;;4.07;2.90;;;24.40;32.90;;;17.24;43.05;97033.06;5292020;26;20489;-53
2024/04/11 09:58:45;;;;;;;5.32;2.53;;;24.50;32.40;;;17.64;42.65;97034.03;5291551;26;20084;-54
2024/04/11 10:01:33;;;;;;;5.43;2.90;;;24.70;32.50;;;17.54;43.81;97035.66;5285568;26;20013;-51
2024/04/11 10:04:13;;;;;;;5.15;2.90;;;24.80;33.00;;;17.60;43.83;97031.09;5298623;26;20005;-51
2024/04/11 10:06:44;;;;;;;3.53;2.85;;;25.00;32.20;;;17.52;43.63;97024.38;5290704;26;20009;-52
2024/04/11 10:09:18;;;;;;;5.22;3.22;;;25.10;31.90;;;17.27;45.33;97030.63;5292586;26;20014;-52
2024/04/11 10:11:51;;;;;;;7.60;3.08;;;25.20;31.70;;;17.48;45.16;97027.88;5279432;26;20001;-52
2024/04/11 10:14:21;;;;;;;7.07;2.70;;;25.10;31.60;;;17.35;45.80;97029.25;5294777;26;20469;-52
2024/04/11 10:16:53;;;;;;;6.03;3.45;;;25.20;31.90;;;17.21;44.79;97030.91;5292336;26;20036;-53
2024/04/11 10:19:35;;;;;;;4.97;2.92;;;25.30;31.50;;;17.31;45.19;97034.38;5288889;26;20002;-54
2024/04/11 10:22:15;;;;;;;6.93;3.25;;;25.30;31.50;;;17.01;45.46;97027.16;5285603;26;20020;-55
2024/04/11 10:24:49;;;;;;;5.82;3.22;;;25.40;31.20;;;17.35;45.76;97021.97;5287280;26;20047;-56
2024/04/11 10:27:18;;;;;;;5.80;3.47;;;25.30;31.20;;;17.51;44.49;97017.34;5293083;26;20006;-53
2024/04/11 10:29:50;;;;;;;8.25;3.25;;;25.40;31.20;;;17.88;43.81;97013.50;5307377;26;20362;-54
2024/04/11 10:32:35;;;;;;;5.28;3.33;;;25.60;31.30;;;17.95;44.49;97011.28;5306242;26;20362;-53
2024/04/11 10:35:07;;;;;;;4.93;3.17;;;25.70;31.40;;;17.58;44.82;97011.72;5295026;26;20024;-55
2024/04/11 10:37:44;;;;;;;5.28;2.85;;;25.80;31.10;;;17.82;43.30;97011.91;5322715;26;20039;-54